sensor_id;sensor_type;location;lat;lon;timestamp;temperature;humidity
28175;SHT30;59417;44.788;10.334;2022-10-16T00:01:10;19.51;74.74
28175;SHT30;59417;44.788;10.334;2022-10-16T00:03:37;19.51;75.12
28175;SHT30;59417;44.788;10.334;2022-10-16T00:06:02;19.54;75.08
28175;SHT30;59417;44.788;10.334;2022-10-16T00:08:28;19.54;74.26
28175;SHT30;59417;44.788;10.334;2022-10-16T00:11:16;19.45;74.34
28175;SHT30;59417;44.788;10.334;2022-10-16T00:13:41;19.42;74.19
28175;SHT30;59417;44.788;10.334;2022-10-16T00:16:07;19.47;74.14
28175;SHT30;59417;44.788;10.334;2022-10-16T00:18:33;19.47;74.34
28175;SHT30;59417;44.788;10.334;2022-10-16T00:21:03;19.49;74.38
28175;SHT30;59417;44.788;10.334;2022-10-16T00:23:29;19.51;74.28
28175;SHT30;59417;44.788;10.334;2022-10-16T00:25:55;19.65;73.97
28175;SHT30;59417;44.788;10.334;2022-10-16T00:28:21;19.62;74.21
28175;SHT30;59417;44.788;10.334;2022-10-16T00:30:47;19.79;73.61
28175;SHT30;59417;44.788;10.334;2022-10-16T00:33:13;19.68;73.53
28175;SHT30;59417;44.788;10.334;2022-10-16T00:35:38;19.44;74.99
28175;SHT30;59417;44.788;10.334;2022-10-16T00:38:04;19.38;74.32
28175;SHT30;59417;44.788;10.334;2022-10-16T00:40:29;19.45;73.98
28175;SHT30;59417;44.788;10.334;2022-10-16T00:42:55;19.54;73.91
28175;SHT30;59417;44.788;10.334;2022-10-16T00:45:20;19.41;74.41
28175;SHT30;59417;44.788;10.334;2022-10-16T00:47:46;19.39;74.70
28175;SHT30;59417;44.788;10.334;2022-10-16T00:52:41;19.58;72.91
28175;SHT30;59417;44.788;10.334;2022-10-16T00:55:08;19.49;73.27
28175;SHT30;59417;44.788;10.334;2022-10-16T00:57:34;19.47;73.90
28175;SHT30;59417;44.788;10.334;2022-10-16T01:00:00;19.42;73.94
28175;SHT30;59417;44.788;10.334;2022-10-16T01:02:26;19.45;74.05
28175;SHT30;59417;44.788;10.334;2022-10-16T01:04:53;19.48;74.39
28175;SHT30;59417;44.788;10.334;2022-10-16T01:12:23;19.48;73.83
28175;SHT30;59417;44.788;10.334;2022-10-16T01:15:01;19.49;74.14
28175;SHT30;59417;44.788;10.334;2022-10-16T01:18:05;19.49;74.39
28175;SHT30;59417;44.788;10.334;2022-10-16T01:20:28;19.58;74.06
28175;SHT30;59417;44.788;10.334;2022-10-16T01:28:24;19.44;74.92
28175;SHT30;59417;44.788;10.334;2022-10-16T01:30:53;19.47;74.56
28175;SHT30;59417;44.788;10.334;2022-10-16T01:33:26;19.48;74.58
28175;SHT30;59417;44.788;10.334;2022-10-16T01:35:54;19.52;74.59
28175;SHT30;59417;44.788;10.334;2022-10-16T01:40:51;19.55;75.02
28175;SHT30;59417;44.788;10.334;2022-10-16T01:43:22;19.49;75.55
28175;SHT30;59417;44.788;10.334;2022-10-16T01:45:47;19.39;75.54
28175;SHT30;59417;44.788;10.334;2022-10-16T01:48:14;19.34;75.32
28175;SHT30;59417;44.788;10.334;2022-10-16T01:50:43;19.42;74.85
28175;SHT30;59417;44.788;10.334;2022-10-16T01:53:11;19.42;74.85
28175;SHT30;59417;44.788;10.334;2022-10-16T01:55:39;19.47;74.56
28175;SHT30;59417;44.788;10.334;2022-10-16T01:58:12;19.47;74.93
28175;SHT30;59417;44.788;10.334;2022-10-16T02:00:39;19.48;75.07
28175;SHT30;59417;44.788;10.334;2022-10-16T02:03:06;19.42;75.50
28175;SHT30;59417;44.788;10.334;2022-10-16T02:08:04;19.32;76.11
28175;SHT30;59417;44.788;10.334;2022-10-16T02:10:30;19.30;76.11
28175;SHT30;59417;44.788;10.334;2022-10-16T02:12:57;19.30;75.70
28175;SHT30;59417;44.788;10.334;2022-10-16T02:15:23;19.34;75.24
28175;SHT30;59417;44.788;10.334;2022-10-16T02:17:49;19.39;74.60
28175;SHT30;59417;44.788;10.334;2022-10-16T02:20:15;19.38;74.72
28175;SHT30;59417;44.788;10.334;2022-10-16T02:22:42;19.38;74.93
28175;SHT30;59417;44.788;10.334;2022-10-16T02:25:10;19.41;74.65
28175;SHT30;59417;44.788;10.334;2022-10-16T02:27:40;19.42;74.64
28175;SHT30;59417;44.788;10.334;2022-10-16T02:30:15;19.42;74.56
28175;SHT30;59417;44.788;10.334;2022-10-16T02:32:44;19.44;74.64
28175;SHT30;59417;44.788;10.334;2022-10-16T02:35:11;19.47;75.19
28175;SHT30;59417;44.788;10.334;2022-10-16T02:37:39;19.39;75.90
28175;SHT30;59417;44.788;10.334;2022-10-16T02:40:06;19.32;76.36
28175;SHT30;59417;44.788;10.334;2022-10-16T02:42:33;19.28;76.35
28175;SHT30;59417;44.788;10.334;2022-10-16T02:44:59;19.31;75.54
28175;SHT30;59417;44.788;10.334;2022-10-16T02:47:24;19.27;75.33
28175;SHT30;59417;44.788;10.334;2022-10-16T02:49:50;19.25;75.35
28175;SHT30;59417;44.788;10.334;2022-10-16T02:52:16;19.28;75.23
28175;SHT30;59417;44.788;10.334;2022-10-16T02:54:41;19.32;75.38
28175;SHT30;59417;44.788;10.334;2022-10-16T02:57:10;19.30;75.71
28175;SHT30;59417;44.788;10.334;2022-10-16T02:59:35;19.27;76.20
28175;SHT30;59417;44.788;10.334;2022-10-16T03:02:01;19.25;75.82
28175;SHT30;59417;44.788;10.334;2022-10-16T03:04:27;19.20;76.14
28175;SHT30;59417;44.788;10.334;2022-10-16T03:06:52;19.17;76.25
28175;SHT30;59417;44.788;10.334;2022-10-16T03:09:18;19.17;76.41
28175;SHT30;59417;44.788;10.334;2022-10-16T03:11:43;19.12;76.55
28175;SHT30;59417;44.788;10.334;2022-10-16T03:14:08;19.21;75.79
28175;SHT30;59417;44.788;10.334;2022-10-16T03:16:34;19.15;76.05
28175;SHT30;59417;44.788;10.334;2022-10-16T03:18:59;19.06;76.46
28175;SHT30;59417;44.788;10.334;2022-10-16T03:21:26;19.01;76.55
28175;SHT30;59417;44.788;10.334;2022-10-16T03:23:51;18.94;76.55
28175;SHT30;59417;44.788;10.334;2022-10-16T03:26:18;18.98;76.48
28175;SHT30;59417;44.788;10.334;2022-10-16T03:28:43;19.03;76.33
28175;SHT30;59417;44.788;10.334;2022-10-16T03:31:08;19.08;76.40
28175;SHT30;59417;44.788;10.334;2022-10-16T03:33:34;19.11;76.22
28175;SHT30;59417;44.788;10.334;2022-10-16T03:36:00;19.03;76.87
28175;SHT30;59417;44.788;10.334;2022-10-16T03:38:25;18.94;77.04
28175;SHT30;59417;44.788;10.334;2022-10-16T03:40:51;18.87;77.09
28175;SHT30;59417;44.788;10.334;2022-10-16T03:43:17;18.88;76.60
28175;SHT30;59417;44.788;10.334;2022-10-16T03:45:42;18.90;76.17
28175;SHT30;59417;44.788;10.334;2022-10-16T03:48:08;18.87;75.73
28175;SHT30;59417;44.788;10.334;2022-10-16T03:50:35;18.81;75.68
28175;SHT30;59417;44.788;10.334;2022-10-16T03:53:00;18.88;75.08
28175;SHT30;59417;44.788;10.334;2022-10-16T03:55:26;18.90;74.79
28175;SHT30;59417;44.788;10.334;2022-10-16T03:57:51;18.83;75.19
28175;SHT30;59417;44.788;10.334;2022-10-16T04:00:17;18.90;74.74
28175;SHT30;59417;44.788;10.334;2022-10-16T04:02:42;18.81;75.44
28175;SHT30;59417;44.788;10.334;2022-10-16T04:05:08;18.62;76.12
28175;SHT30;59417;44.788;10.334;2022-10-16T04:07:34;18.49;76.33
28175;SHT30;59417;44.788;10.334;2022-10-16T04:09:59;18.59;75.88
28175;SHT30;59417;44.788;10.334;2022-10-16T04:12:26;18.64;75.83
28175;SHT30;59417;44.788;10.334;2022-10-16T04:14:52;18.66;75.76
28175;SHT30;59417;44.788;10.334;2022-10-16T04:17:17;18.63;75.72
28175;SHT30;59417;44.788;10.334;2022-10-16T04:19:43;18.67;75.31
28175;SHT30;59417;44.788;10.334;2022-10-16T04:22:08;18.62;75.34
28175;SHT30;59417;44.788;10.334;2022-10-16T04:24:34;18.66;74.87
28175;SHT30;59417;44.788;10.334;2022-10-16T04:26:59;18.72;75.19
28175;SHT30;59417;44.788;10.334;2022-10-16T04:29:25;18.69;75.21
28175;SHT30;59417;44.788;10.334;2022-10-16T04:31:50;18.66;75.57
28175;SHT30;59417;44.788;10.334;2022-10-16T04:34:16;18.52;75.91
28175;SHT30;59417;44.788;10.334;2022-10-16T04:36:41;18.52;75.72
28175;SHT30;59417;44.788;10.334;2022-10-16T04:39:07;18.57;75.18
28175;SHT30;59417;44.788;10.334;2022-10-16T04:41:32;18.63;75.19
28175;SHT30;59417;44.788;10.334;2022-10-16T04:46:25;18.56;75.31
28175;SHT30;59417;44.788;10.334;2022-10-16T04:48:50;18.46;75.90
28175;SHT30;59417;44.788;10.334;2022-10-16T04:51:15;18.45;75.66
28175;SHT30;59417;44.788;10.334;2022-10-16T04:53:41;18.42;75.31
28175;SHT30;59417;44.788;10.334;2022-10-16T04:56:07;18.43;75.24
28175;SHT30;59417;44.788;10.334;2022-10-16T04:58:32;18.46;75.36
28175;SHT30;59417;44.788;10.334;2022-10-16T05:00:58;18.36;75.67
28175;SHT30;59417;44.788;10.334;2022-10-16T05:03:23;18.33;75.75
28175;SHT30;59417;44.788;10.334;2022-10-16T05:05:49;18.26;76.08
28175;SHT30;59417;44.788;10.334;2022-10-16T05:08:14;18.28;75.92
28175;SHT30;59417;44.788;10.334;2022-10-16T05:10:41;18.28;75.98
28175;SHT30;59417;44.788;10.334;2022-10-16T05:13:06;18.29;75.91
28175;SHT30;59417;44.788;10.334;2022-10-16T05:15:32;18.28;75.57
28175;SHT30;59417;44.788;10.334;2022-10-16T05:17:58;18.23;75.37
28175;SHT30;59417;44.788;10.334;2022-10-16T05:20:23;18.18;76.04
28175;SHT30;59417;44.788;10.334;2022-10-16T05:22:49;18.15;75.98
28175;SHT30;59417;44.788;10.334;2022-10-16T05:25:15;18.13;76.06
28175;SHT30;59417;44.788;10.334;2022-10-16T05:27:40;18.13;75.94
28175;SHT30;59417;44.788;10.334;2022-10-16T05:30:06;18.16;75.44
28175;SHT30;59417;44.788;10.334;2022-10-16T05:32:31;18.18;75.03
28175;SHT30;59417;44.788;10.334;2022-10-16T05:34:57;18.26;75.01
28175;SHT30;59417;44.788;10.334;2022-10-16T05:37:24;18.28;74.95
28175;SHT30;59417;44.788;10.334;2022-10-16T05:39:50;18.30;75.00
28175;SHT30;59417;44.788;10.334;2022-10-16T05:42:15;18.36;75.04
28175;SHT30;59417;44.788;10.334;2022-10-16T05:44:41;18.28;74.71
28175;SHT30;59417;44.788;10.334;2022-10-16T05:47:06;18.28;74.60
28175;SHT30;59417;44.788;10.334;2022-10-16T05:49:32;18.25;74.86
28175;SHT30;59417;44.788;10.334;2022-10-16T05:54:42;18.12;74.93
28175;SHT30;59417;44.788;10.334;2022-10-16T05:57:08;18.18;74.89
28175;SHT30;59417;44.788;10.334;2022-10-16T05:59:34;18.18;74.48
28175;SHT30;59417;44.788;10.334;2022-10-16T06:01:59;18.25;73.61
28175;SHT30;59417;44.788;10.334;2022-10-16T06:04:25;18.25;73.78
28175;SHT30;59417;44.788;10.334;2022-10-16T06:06:50;18.37;72.86
28175;SHT30;59417;44.788;10.334;2022-10-16T06:09:16;18.32;72.81
28175;SHT30;59417;44.788;10.334;2022-10-16T06:11:41;18.25;73.05
28175;SHT30;59417;44.788;10.334;2022-10-16T06:14:08;18.18;73.15
28175;SHT30;59417;44.788;10.334;2022-10-16T06:16:34;18.15;73.49
28175;SHT30;59417;44.788;10.334;2022-10-16T06:19:00;18.09;73.68
28175;SHT30;59417;44.788;10.334;2022-10-16T06:21:26;18.12;73.72
28175;SHT30;59417;44.788;10.334;2022-10-16T06:23:52;18.11;73.80
28175;SHT30;59417;44.788;10.334;2022-10-16T06:26:19;18.16;74.05
28175;SHT30;59417;44.788;10.334;2022-10-16T06:28:45;18.18;73.51
28175;SHT30;59417;44.788;10.334;2022-10-16T06:31:11;18.23;73.54
28175;SHT30;59417;44.788;10.334;2022-10-16T06:33:37;18.19;73.91
28175;SHT30;59417;44.788;10.334;2022-10-16T06:36:12;18.25;73.37
28175;SHT30;59417;44.788;10.334;2022-10-16T06:38:38;18.35;73.03
28175;SHT30;59417;44.788;10.334;2022-10-16T06:41:07;18.30;73.09
28175;SHT30;59417;44.788;10.334;2022-10-16T06:43:37;18.26;73.35
28175;SHT30;59417;44.788;10.334;2022-10-16T06:46:04;18.28;73.52
28175;SHT30;59417;44.788;10.334;2022-10-16T06:48:37;18.26;73.72
28175;SHT30;59417;44.788;10.334;2022-10-16T06:51:06;18.36;73.19
28175;SHT30;59417;44.788;10.334;2022-10-16T06:53:33;18.36;73.72
28175;SHT30;59417;44.788;10.334;2022-10-16T06:58:57;18.46;73.90
28175;SHT30;59417;44.788;10.334;2022-10-16T07:01:23;18.52;73.55
28175;SHT30;59417;44.788;10.334;2022-10-16T07:03:49;18.52;73.95
28175;SHT30;59417;44.788;10.334;2022-10-16T07:06:18;18.55;73.35
28175;SHT30;59417;44.788;10.334;2022-10-16T07:08:44;18.56;73.54
28175;SHT30;59417;44.788;10.334;2022-10-16T07:11:14;18.63;73.53
28175;SHT30;59417;44.788;10.334;2022-10-16T07:13:41;18.64;73.48
28175;SHT30;59417;44.788;10.334;2022-10-16T07:16:07;18.69;73.62
28175;SHT30;59417;44.788;10.334;2022-10-16T07:18:33;18.72;73.69
28175;SHT30;59417;44.788;10.334;2022-10-16T07:21:12;18.73;73.50
28175;SHT30;59417;44.788;10.334;2022-10-16T07:23:38;18.76;73.24
28175;SHT30;59417;44.788;10.334;2022-10-16T07:26:03;18.84;73.23
28175;SHT30;59417;44.788;10.334;2022-10-16T07:28:34;19.07;72.10
28175;SHT30;59417;44.788;10.334;2022-10-16T07:31:06;19.08;71.70
28175;SHT30;59417;44.788;10.334;2022-10-16T07:33:38;19.01;72.41
28175;SHT30;59417;44.788;10.334;2022-10-16T07:36:05;19.00;72.67
28175;SHT30;59417;44.788;10.334;2022-10-16T07:38:36;19.08;72.22
28175;SHT30;59417;44.788;10.334;2022-10-16T07:41:12;19.10;72.24
28175;SHT30;59417;44.788;10.334;2022-10-16T07:43:38;19.10;72.88
28175;SHT30;59417;44.788;10.334;2022-10-16T07:46:04;19.08;72.87
28175;SHT30;59417;44.788;10.334;2022-10-16T07:48:31;19.17;73.15
28175;SHT30;59417;44.788;10.334;2022-10-16T07:51:00;19.23;73.64
28175;SHT30;59417;44.788;10.334;2022-10-16T07:53:26;19.34;72.80
28175;SHT30;59417;44.788;10.334;2022-10-16T07:55:52;19.24;73.50
28175;SHT30;59417;44.788;10.334;2022-10-16T07:58:18;19.21;73.83
28175;SHT30;59417;44.788;10.334;2022-10-16T08:00:43;19.41;72.96
28175;SHT30;59417;44.788;10.334;2022-10-16T08:03:08;19.39;73.03
28175;SHT30;59417;44.788;10.334;2022-10-16T08:05:34;19.47;73.12
28175;SHT30;59417;44.788;10.334;2022-10-16T08:08:00;19.39;73.79
28175;SHT30;59417;44.788;10.334;2022-10-16T08:10:27;19.41;73.94
28175;SHT30;59417;44.788;10.334;2022-10-16T08:12:53;19.58;73.85
28175;SHT30;59417;44.788;10.334;2022-10-16T08:15:18;19.61;73.33
28175;SHT30;59417;44.788;10.334;2022-10-16T08:17:44;19.63;73.42
28175;SHT30;59417;44.788;10.334;2022-10-16T08:20:10;19.66;73.44
28175;SHT30;59417;44.788;10.334;2022-10-16T08:22:36;19.90;73.43
28175;SHT30;59417;44.788;10.334;2022-10-16T08:25:01;20.02;73.48
28175;SHT30;59417;44.788;10.334;2022-10-16T08:27:33;19.99;73.78
28175;SHT30;59417;44.788;10.334;2022-10-16T08:29:58;19.93;74.15
28175;SHT30;59417;44.788;10.334;2022-10-16T08:32:24;19.98;73.69
28175;SHT30;59417;44.788;10.334;2022-10-16T08:34:49;19.82;74.75
28175;SHT30;59417;44.788;10.334;2022-10-16T08:37:14;19.82;74.47
28175;SHT30;59417;44.788;10.334;2022-10-16T08:39:40;19.98;73.44
28175;SHT30;59417;44.788;10.334;2022-10-16T08:42:15;20.03;73.36
28175;SHT30;59417;44.788;10.334;2022-10-16T08:44:49;20.00;73.17
28175;SHT30;59417;44.788;10.334;2022-10-16T08:49:59;20.00;73.03
28175;SHT30;59417;44.788;10.334;2022-10-16T08:52:28;20.13;73.25
28175;SHT30;59417;44.788;10.334;2022-10-16T08:54:54;20.13;72.93
28175;SHT30;59417;44.788;10.334;2022-10-16T08:57:21;20.13;72.76
28175;SHT30;59417;44.788;10.334;2022-10-16T08:59:47;20.26;72.57
28175;SHT30;59417;44.788;10.334;2022-10-16T09:04:55;20.27;72.97
28175;SHT30;59417;44.788;10.334;2022-10-16T09:07:39;20.50;71.70
28175;SHT30;59417;44.788;10.334;2022-10-16T09:20:45;20.53;72.46
28175;SHT30;59417;44.788;10.334;2022-10-16T09:23:15;20.71;72.01
28175;SHT30;59417;44.788;10.334;2022-10-16T09:25:43;20.84;71.35
28175;SHT30;59417;44.788;10.334;2022-10-16T09:28:08;20.94;71.30
28175;SHT30;59417;44.788;10.334;2022-10-16T09:30:35;20.98;70.94
28175;SHT30;59417;44.788;10.334;2022-10-16T09:33:02;21.01;71.39
28175;SHT30;59417;44.788;10.334;2022-10-16T09:35:32;21.05;72.08
28175;SHT30;59417;44.788;10.334;2022-10-16T09:37:58;21.26;70.70
28175;SHT30;59417;44.788;10.334;2022-10-16T09:40:25;21.33;70.69
28175;SHT30;59417;44.788;10.334;2022-10-16T09:42:52;21.52;70.59
28175;SHT30;59417;44.788;10.334;2022-10-16T09:45:20;21.62;69.78
28175;SHT30;59417;44.788;10.334;2022-10-16T09:47:46;21.76;69.87
28175;SHT30;59417;44.788;10.334;2022-10-16T09:50:25;21.84;69.09
28175;SHT30;59417;44.788;10.334;2022-10-16T09:53:02;21.80;68.14
28175;SHT30;59417;44.788;10.334;2022-10-16T09:55:28;21.63;67.69
28175;SHT30;59417;44.788;10.334;2022-10-16T09:57:53;21.55;67.30
28175;SHT30;59417;44.788;10.334;2022-10-16T10:00:20;21.62;68.70
28175;SHT30;59417;44.788;10.334;2022-10-16T10:02:46;21.86;66.22
28175;SHT30;59417;44.788;10.334;2022-10-16T10:05:19;21.89;67.07
28175;SHT30;59417;44.788;10.334;2022-10-16T10:07:46;21.94;66.03
28175;SHT30;59417;44.788;10.334;2022-10-16T10:13:24;22.17;65.07
28175;SHT30;59417;44.788;10.334;2022-10-16T10:15:52;22.39;62.95
28175;SHT30;59417;44.788;10.334;2022-10-16T10:18:18;22.47;63.58
28175;SHT30;59417;44.788;10.334;2022-10-16T10:20:45;22.45;62.29
28175;SHT30;59417;44.788;10.334;2022-10-16T10:23:19;22.39;64.14
28175;SHT30;59417;44.788;10.334;2022-10-16T10:38:58;22.65;63.48
28175;SHT30;59417;44.788;10.334;2022-10-16T10:52:37;22.89;63.44
28175;SHT30;59417;44.788;10.334;2022-10-16T10:55:17;23.03;63.87
28175;SHT30;59417;44.788;10.334;2022-10-16T11:00:20;23.12;62.24
28175;SHT30;59417;44.788;10.334;2022-10-16T11:08:06;23.22;62.17
28175;SHT30;59417;44.788;10.334;2022-10-16T11:10:44;23.43;62.23
28175;SHT30;59417;44.788;10.334;2022-10-16T11:13:15;23.53;61.95
28175;SHT30;59417;44.788;10.334;2022-10-16T11:15:44;23.22;61.74
28175;SHT30;59417;44.788;10.334;2022-10-16T11:18:22;23.02;62.24
28175;SHT30;59417;44.788;10.334;2022-10-16T11:20:51;22.86;62.76
28175;SHT30;59417;44.788;10.334;2022-10-16T11:23:23;22.82;62.66
28175;SHT30;59417;44.788;10.334;2022-10-16T11:25:50;22.72;63.92
28175;SHT30;59417;44.788;10.334;2022-10-16T11:30:59;22.65;63.50
28175;SHT30;59417;44.788;10.334;2022-10-16T11:33:52;22.57;64.90
28175;SHT30;59417;44.788;10.334;2022-10-16T11:38:53;22.59;65.95
28175;SHT30;59417;44.788;10.334;2022-10-16T11:44:05;22.96;62.37
28175;SHT30;59417;44.788;10.334;2022-10-16T11:46:32;22.95;62.90
28175;SHT30;59417;44.788;10.334;2022-10-16T11:51:35;22.89;62.41
28175;SHT30;59417;44.788;10.334;2022-10-16T11:56:30;22.76;62.88
28175;SHT30;59417;44.788;10.334;2022-10-16T12:04:39;23.09;63.31
28175;SHT30;59417;44.788;10.334;2022-10-16T12:07:14;22.99;62.96
28175;SHT30;59417;44.788;10.334;2022-10-16T12:09:40;22.98;62.98
28175;SHT30;59417;44.788;10.334;2022-10-16T12:12:26;23.09;63.16
28175;SHT30;59417;44.788;10.334;2022-10-16T12:15:02;23.06;61.87
28175;SHT30;59417;44.788;10.334;2022-10-16T12:17:35;23.03;61.82
28175;SHT30;59417;44.788;10.334;2022-10-16T12:20:23;22.96;61.91
28175;SHT30;59417;44.788;10.334;2022-10-16T12:22:51;23.04;63.54
28175;SHT30;59417;44.788;10.334;2022-10-16T12:30:40;22.71;63.96
28175;SHT30;59417;44.788;10.334;2022-10-16T12:33:16;22.72;65.35
28175;SHT30;59417;44.788;10.334;2022-10-16T12:35:44;22.93;64.91
28175;SHT30;59417;44.788;10.334;2022-10-16T12:40:45;22.98;63.57
28175;SHT30;59417;44.788;10.334;2022-10-16T12:43:40;22.83;63.32
28175;SHT30;59417;44.788;10.334;2022-10-16T12:48:33;22.86;64.13
28175;SHT30;59417;44.788;10.334;2022-10-16T12:53:57;23.13;60.61
28175;SHT30;59417;44.788;10.334;2022-10-16T13:02:00;23.16;61.53
28175;SHT30;59417;44.788;10.334;2022-10-16T13:04:47;23.24;60.73
28175;SHT30;59417;44.788;10.334;2022-10-16T13:23:16;23.70;60.26
28175;SHT30;59417;44.788;10.334;2022-10-16T13:25:58;23.65;60.74
28175;SHT30;59417;44.788;10.334;2022-10-16T13:28:29;23.65;61.17
28175;SHT30;59417;44.788;10.334;2022-10-16T13:30:59;23.68;61.48
28175;SHT30;59417;44.788;10.334;2022-10-16T13:33:30;23.82;61.51
28175;SHT30;59417;44.788;10.334;2022-10-16T13:35:57;23.94;61.12
28175;SHT30;59417;44.788;10.334;2022-10-16T13:38:27;24.09;58.39
28175;SHT30;59417;44.788;10.334;2022-10-16T13:40:57;23.98;59.30
28175;SHT30;59417;44.788;10.334;2022-10-16T13:43:28;24.01;58.25
28175;SHT30;59417;44.788;10.334;2022-10-16T13:45:56;23.88;60.16
28175;SHT30;59417;44.788;10.334;2022-10-16T13:48:22;23.97;59.72
28175;SHT30;59417;44.788;10.334;2022-10-16T13:51:33;23.91;60.82
28175;SHT30;59417;44.788;10.334;2022-10-16T13:53:52;23.85;60.29
28175;SHT30;59417;44.788;10.334;2022-10-16T13:56:21;23.78;60.38
28175;SHT30;59417;44.788;10.334;2022-10-16T13:59:01;23.71;60.07
28175;SHT30;59417;44.788;10.334;2022-10-16T14:01:31;23.75;59.47
28175;SHT30;59417;44.788;10.334;2022-10-16T14:04:02;23.71;59.51
28175;SHT30;59417;44.788;10.334;2022-10-16T14:06:33;23.74;58.87
28175;SHT30;59417;44.788;10.334;2022-10-16T14:09:07;23.68;60.26
28175;SHT30;59417;44.788;10.334;2022-10-16T14:11:42;23.70;60.21
28175;SHT30;59417;44.788;10.334;2022-10-16T14:14:10;23.75;58.48
28175;SHT30;59417;44.788;10.334;2022-10-16T14:16:36;23.85;57.96
28175;SHT30;59417;44.788;10.334;2022-10-16T14:19:15;23.81;58.26
28175;SHT30;59417;44.788;10.334;2022-10-16T14:21:43;23.75;58.38
28175;SHT30;59417;44.788;10.334;2022-10-16T14:26:52;23.74;58.86
28175;SHT30;59417;44.788;10.334;2022-10-16T14:29:21;23.75;58.64
28175;SHT30;59417;44.788;10.334;2022-10-16T14:31:58;23.78;58.16
28175;SHT30;59417;44.788;10.334;2022-10-16T14:34:35;23.78;58.13
28175;SHT30;59417;44.788;10.334;2022-10-16T14:39:39;23.68;58.71
28175;SHT30;59417;44.788;10.334;2022-10-16T14:42:20;23.65;59.25
28175;SHT30;59417;44.788;10.334;2022-10-16T14:44:53;23.68;59.35
28175;SHT30;59417;44.788;10.334;2022-10-16T14:47:25;23.70;58.53
28175;SHT30;59417;44.788;10.334;2022-10-16T14:49:51;23.65;59.00
28175;SHT30;59417;44.788;10.334;2022-10-16T14:52:20;23.58;59.98
28175;SHT30;59417;44.788;10.334;2022-10-16T14:54:47;23.58;58.88
28175;SHT30;59417;44.788;10.334;2022-10-16T14:57:17;23.57;58.48
28175;SHT30;59417;44.788;10.334;2022-10-16T14:59:43;23.53;58.37
28175;SHT30;59417;44.788;10.334;2022-10-16T15:04:50;23.41;59.35
28175;SHT30;59417;44.788;10.334;2022-10-16T15:07:16;23.36;59.46
28175;SHT30;59417;44.788;10.334;2022-10-16T15:09:41;23.34;59.57
28175;SHT30;59417;44.788;10.334;2022-10-16T15:12:07;23.30;59.89
28175;SHT30;59417;44.788;10.334;2022-10-16T15:14:32;23.24;59.94
28175;SHT30;59417;44.788;10.334;2022-10-16T15:16:58;23.22;59.65
28175;SHT30;59417;44.788;10.334;2022-10-16T15:19:24;23.24;60.41
28175;SHT30;59417;44.788;10.334;2022-10-16T15:21:49;23.24;60.17
28175;SHT30;59417;44.788;10.334;2022-10-16T15:24:15;23.18;61.12
28175;SHT30;59417;44.788;10.334;2022-10-16T15:26:41;23.16;60.89
28175;SHT30;59417;44.788;10.334;2022-10-16T15:29:07;23.10;61.20
28175;SHT30;59417;44.788;10.334;2022-10-16T15:31:33;23.10;61.05
28175;SHT30;59417;44.788;10.334;2022-10-16T15:33:58;23.06;61.82
28175;SHT30;59417;44.788;10.334;2022-10-16T15:36:33;23.04;61.97
28175;SHT30;59417;44.788;10.334;2022-10-16T15:38:59;23.10;61.48
28175;SHT30;59417;44.788;10.334;2022-10-16T15:41:25;23.02;62.77
28175;SHT30;59417;44.788;10.334;2022-10-16T15:43:50;23.00;61.90
28175;SHT30;59417;44.788;10.334;2022-10-16T15:46:19;22.92;62.63
28175;SHT30;59417;44.788;10.334;2022-10-16T15:48:46;22.89;63.40
28175;SHT30;59417;44.788;10.334;2022-10-16T15:51:12;22.82;62.38
28175;SHT30;59417;44.788;10.334;2022-10-16T15:53:37;22.80;62.68
28175;SHT30;59417;44.788;10.334;2022-10-16T15:56:03;22.78;62.56
28175;SHT30;59417;44.788;10.334;2022-10-16T15:58:29;22.72;62.84
28175;SHT30;59417;44.788;10.334;2022-10-16T16:00:58;22.69;63.55
28175;SHT30;59417;44.788;10.334;2022-10-16T16:03:26;22.64;63.53
28175;SHT30;59417;44.788;10.334;2022-10-16T16:05:52;22.58;63.56
28175;SHT30;59417;44.788;10.334;2022-10-16T16:08:18;22.59;63.48
28175;SHT30;59417;44.788;10.334;2022-10-16T16:10:43;22.59;64.27
28175;SHT30;59417;44.788;10.334;2022-10-16T16:13:09;22.57;64.58
28175;SHT30;59417;44.788;10.334;2022-10-16T16:15:36;22.49;66.04
28175;SHT30;59417;44.788;10.334;2022-10-16T16:18:03;22.45;66.68
28175;SHT30;59417;44.788;10.334;2022-10-16T16:20:30;22.38;66.63
28175;SHT30;59417;44.788;10.334;2022-10-16T16:22:56;22.32;67.07
28175;SHT30;59417;44.788;10.334;2022-10-16T16:25:21;22.27;67.08
28175;SHT30;59417;44.788;10.334;2022-10-16T16:27:47;22.20;66.56
28175;SHT30;59417;44.788;10.334;2022-10-16T16:30:12;22.11;66.56
28175;SHT30;59417;44.788;10.334;2022-10-16T16:32:38;22.07;66.56
28175;SHT30;59417;44.788;10.334;2022-10-16T16:35:03;21.98;66.67
28175;SHT30;59417;44.788;10.334;2022-10-16T16:37:30;21.94;66.56
28175;SHT30;59417;44.788;10.334;2022-10-16T16:39:56;21.92;66.77
28175;SHT30;59417;44.788;10.334;2022-10-16T16:42:24;21.80;66.78
28175;SHT30;59417;44.788;10.334;2022-10-16T16:44:51;21.74;67.62
28175;SHT30;59417;44.788;10.334;2022-10-16T16:47:26;21.69;67.51
28175;SHT30;59417;44.788;10.334;2022-10-16T16:49:51;21.60;67.23
28175;SHT30;59417;44.788;10.334;2022-10-16T16:52:17;21.56;67.21
28175;SHT30;59417;44.788;10.334;2022-10-16T16:54:48;21.47;67.61
28175;SHT30;59417;44.788;10.334;2022-10-16T16:57:18;21.46;67.95
28175;SHT30;59417;44.788;10.334;2022-10-16T16:59:49;21.43;68.03
28175;SHT30;59417;44.788;10.334;2022-10-16T17:02:15;21.41;69.40
28175;SHT30;59417;44.788;10.334;2022-10-16T17:04:41;21.33;68.52
28175;SHT30;59417;44.788;10.334;2022-10-16T17:07:06;21.25;68.49
28175;SHT30;59417;44.788;10.334;2022-10-16T17:09:34;21.22;68.71
28175;SHT30;59417;44.788;10.334;2022-10-16T17:12:00;21.20;69.34
28175;SHT30;59417;44.788;10.334;2022-10-16T17:14:25;21.19;70.59
28175;SHT30;59417;44.788;10.334;2022-10-16T17:16:51;21.18;70.95
28175;SHT30;59417;44.788;10.334;2022-10-16T17:19:18;21.11;70.11
28175;SHT30;59417;44.788;10.334;2022-10-16T17:21:43;21.05;69.78
28175;SHT30;59417;44.788;10.334;2022-10-16T17:24:09;21.11;69.41
28175;SHT30;59417;44.788;10.334;2022-10-16T17:26:35;21.05;69.77
28175;SHT30;59417;44.788;10.334;2022-10-16T17:29:05;21.04;69.76
28175;SHT30;59417;44.788;10.334;2022-10-16T17:31:32;21.01;69.80
28175;SHT30;59417;44.788;10.334;2022-10-16T17:33:59;20.98;69.93
28175;SHT30;59417;44.788;10.334;2022-10-16T17:36:24;20.95;70.26
28175;SHT30;59417;44.788;10.334;2022-10-16T17:38:53;20.94;70.44